Terminal Aerodrome Forecast
Issued by NWS North Platte, NE

Home | Current Version | Previous Version | Text Only | Print | Product List | Glossary Off
Versions: 1 2 3 4 5 6 7 8 9 10 11 12 13 14 15 16 17

384
FTUS43 KLBF 140520
TAFVTN
TAF
KVTN 140520Z 1406/1506 14010KT P6SM SKC
     FM141200 13005KT P6SM SCT010 BKN020
     FM141500 20005KT P6SM VCSH BKN010
     FM141800 33012KT P6SM -SHRA BKN020
     FM142000 34019G26KT P6SM VCSH BKN020
     FM150000 32018G25KT P6SM BKN050
     FM150300 33012KT P6SM SCT250=

USA.gov is the U.S. government's official web portal to all federal, state and local government web resources and services.